sensor_id;sensor_type;location;lat;lon;timestamp;temperature;humidity
21184;DHT22;18176;49.502;11.754;2023-05-07T00:02:18;11.30;99.90
21184;DHT22;18176;49.502;11.754;2023-05-07T00:06:20;11.20;99.90
21184;DHT22;18176;49.502;11.754;2023-05-07T00:10:21;11.10;99.90
21184;DHT22;18176;49.502;11.754;2023-05-07T00:14:22;11.00;99.90
21184;DHT22;18176;49.502;11.754;2023-05-07T00:18:25;11.00;99.90
21184;DHT22;18176;49.502;11.754;2023-05-07T00:22:25;10.90;99.90
21184;DHT22;18176;49.502;11.754;2023-05-07T00:26:27;10.80;99.90
21184;DHT22;18176;49.502;11.754;2023-05-07T00:30:27;10.90;99.90
21184;DHT22;18176;49.502;11.754;2023-05-07T00:34:31;10.80;99.90
21184;DHT22;18176;49.502;11.754;2023-05-07T00:38:31;10.80;99.90
21184;DHT22;18176;49.502;11.754;2023-05-07T00:42:31;10.70;99.90
21184;DHT22;18176;49.502;11.754;2023-05-07T00:46:33;10.70;99.90
21184;DHT22;18176;49.502;11.754;2023-05-07T00:50:36;10.60;99.90
21184;DHT22;18176;49.502;11.754;2023-05-07T00:54:37;10.60;99.90
21184;DHT22;18176;49.502;11.754;2023-05-07T00:58:40;10.50;99.90
21184;DHT22;18176;49.502;11.754;2023-05-07T01:02:41;10.40;99.90
21184;DHT22;18176;49.502;11.754;2023-05-07T01:06:45;10.50;99.90
21184;DHT22;18176;49.502;11.754;2023-05-07T01:10:46;10.50;99.90
21184;DHT22;18176;49.502;11.754;2023-05-07T01:14:47;10.50;99.90
21184;DHT22;18176;49.502;11.754;2023-05-07T01:18:48;10.50;99.90
21184;DHT22;18176;49.502;11.754;2023-05-07T01:22:52;10.50;99.90
21184;DHT22;18176;49.502;11.754;2023-05-07T01:26:53;10.40;99.90
21184;DHT22;18176;49.502;11.754;2023-05-07T01:30:55;10.40;99.90
21184;DHT22;18176;49.502;11.754;2023-05-07T01:35:01;10.40;99.90
21184;DHT22;18176;49.502;11.754;2023-05-07T01:39:08;10.40;99.90
21184;DHT22;18176;49.502;11.754;2023-05-07T01:43:10;10.30;99.90
21184;DHT22;18176;49.502;11.754;2023-05-07T01:47:11;10.20;99.90
21184;DHT22;18176;49.502;11.754;2023-05-07T01:51:13;10.20;99.90
21184;DHT22;18176;49.502;11.754;2023-05-07T01:55:16;10.30;99.90
21184;DHT22;18176;49.502;11.754;2023-05-07T01:59:17;10.30;99.90
21184;DHT22;18176;49.502;11.754;2023-05-07T02:03:17;10.40;99.90
21184;DHT22;18176;49.502;11.754;2023-05-07T02:07:26;10.40;99.90
21184;DHT22;18176;49.502;11.754;2023-05-07T02:11:30;10.50;99.90
21184;DHT22;18176;49.502;11.754;2023-05-07T02:15:30;10.40;99.90
21184;DHT22;18176;49.502;11.754;2023-05-07T02:19:32;10.40;99.90
21184;DHT22;18176;49.502;11.754;2023-05-07T02:23:32;10.50;99.90
21184;DHT22;18176;49.502;11.754;2023-05-07T02:27:35;10.40;99.90
21184;DHT22;18176;49.502;11.754;2023-05-07T02:31:36;10.40;99.90
21184;DHT22;18176;49.502;11.754;2023-05-07T02:35:36;10.30;99.90
21184;DHT22;18176;49.502;11.754;2023-05-07T02:39:37;10.30;99.90
21184;DHT22;18176;49.502;11.754;2023-05-07T02:43:40;10.20;99.90
21184;DHT22;18176;49.502;11.754;2023-05-07T02:47:41;10.20;99.90
21184;DHT22;18176;49.502;11.754;2023-05-07T02:51:42;10.20;99.90
21184;DHT22;18176;49.502;11.754;2023-05-07T02:55:49;10.10;99.90
21184;DHT22;18176;49.502;11.754;2023-05-07T02:59:51;10.20;99.90
21184;DHT22;18176;49.502;11.754;2023-05-07T03:03:52;10.10;99.90
21184;DHT22;18176;49.502;11.754;2023-05-07T03:07:52;10.10;99.90
21184;DHT22;18176;49.502;11.754;2023-05-07T03:11:53;10.10;99.90
21184;DHT22;18176;49.502;11.754;2023-05-07T03:15:59;10.10;99.90
21184;DHT22;18176;49.502;11.754;2023-05-07T03:19:59;10.00;99.90
21184;DHT22;18176;49.502;11.754;2023-05-07T03:24:01;9.90;99.90
21184;DHT22;18176;49.502;11.754;2023-05-07T03:28:02;9.80;99.90
21184;DHT22;18176;49.502;11.754;2023-05-07T03:32:25;9.70;99.90
21184;DHT22;18176;49.502;11.754;2023-05-07T03:36:26;9.60;99.90
21184;DHT22;18176;49.502;11.754;2023-05-07T03:40:26;9.70;99.90
21184;DHT22;18176;49.502;11.754;2023-05-07T03:44:27;9.70;99.90
21184;DHT22;18176;49.502;11.754;2023-05-07T03:48:32;9.70;99.90
21184;DHT22;18176;49.502;11.754;2023-05-07T03:52:33;9.70;99.90
21184;DHT22;18176;49.502;11.754;2023-05-07T03:56:34;9.70;99.90
21184;DHT22;18176;49.502;11.754;2023-05-07T04:00:35;9.70;99.90
21184;DHT22;18176;49.502;11.754;2023-05-07T04:05:06;9.70;99.90
21184;DHT22;18176;49.502;11.754;2023-05-07T04:09:09;9.80;99.90
21184;DHT22;18176;49.502;11.754;2023-05-07T04:13:09;9.90;99.90
21184;DHT22;18176;49.502;11.754;2023-05-07T04:17:11;9.90;99.90
21184;DHT22;18176;49.502;11.754;2023-05-07T04:21:18;9.90;99.90
21184;DHT22;18176;49.502;11.754;2023-05-07T04:25:21;9.90;99.90
21184;DHT22;18176;49.502;11.754;2023-05-07T04:29:30;9.90;99.90
21184;DHT22;18176;49.502;11.754;2023-05-07T04:33:32;9.90;99.90
21184;DHT22;18176;49.502;11.754;2023-05-07T04:37:36;9.90;99.90
21184;DHT22;18176;49.502;11.754;2023-05-07T04:41:37;10.00;99.90
21184;DHT22;18176;49.502;11.754;2023-05-07T04:45:38;10.00;99.90
21184;DHT22;18176;49.502;11.754;2023-05-07T04:49:39;10.10;99.90
21184;DHT22;18176;49.502;11.754;2023-05-07T04:53:43;10.20;99.90
21184;DHT22;18176;49.502;11.754;2023-05-07T04:57:44;10.30;99.90
21184;DHT22;18176;49.502;11.754;2023-05-07T05:01:45;10.40;99.90
21184;DHT22;18176;49.502;11.754;2023-05-07T05:05:46;10.60;99.90
21184;DHT22;18176;49.502;11.754;2023-05-07T05:09:52;10.60;99.90
21184;DHT22;18176;49.502;11.754;2023-05-07T05:13:55;10.60;99.90
21184;DHT22;18176;49.502;11.754;2023-05-07T05:17:55;10.60;99.90
21184;DHT22;18176;49.502;11.754;2023-05-07T05:21:56;10.70;99.90
21184;DHT22;18176;49.502;11.754;2023-05-07T05:26:01;10.80;99.90
21184;DHT22;18176;49.502;11.754;2023-05-07T05:30:04;11.00;99.90
21184;DHT22;18176;49.502;11.754;2023-05-07T05:34:07;11.10;99.90
21184;DHT22;18176;49.502;11.754;2023-05-07T05:38:07;11.30;99.90
21184;DHT22;18176;49.502;11.754;2023-05-07T05:42:12;11.40;99.90
21184;DHT22;18176;49.502;11.754;2023-05-07T05:46:13;11.50;99.90
21184;DHT22;18176;49.502;11.754;2023-05-07T05:50:16;11.60;99.90
21184;DHT22;18176;49.502;11.754;2023-05-07T05:54:19;11.70;99.90
21184;DHT22;18176;49.502;11.754;2023-05-07T05:58:23;11.90;99.90
21184;DHT22;18176;49.502;11.754;2023-05-07T06:02:29;12.00;99.90
21184;DHT22;18176;49.502;11.754;2023-05-07T06:06:31;12.10;99.90
21184;DHT22;18176;49.502;11.754;2023-05-07T06:10:32;12.20;99.90
21184;DHT22;18176;49.502;11.754;2023-05-07T06:14:37;12.30;99.90
21184;DHT22;18176;49.502;11.754;2023-05-07T06:18:38;12.60;99.90
21184;DHT22;18176;49.502;11.754;2023-05-07T06:22:39;12.80;99.90
21184;DHT22;18176;49.502;11.754;2023-05-07T06:26:41;13.00;99.90
21184;DHT22;18176;49.502;11.754;2023-05-07T06:30:45;13.20;99.90
21184;DHT22;18176;49.502;11.754;2023-05-07T06:34:47;13.30;99.90
21184;DHT22;18176;49.502;11.754;2023-05-07T06:38:48;13.40;99.90
21184;DHT22;18176;49.502;11.754;2023-05-07T06:42:49;13.70;99.90
21184;DHT22;18176;49.502;11.754;2023-05-07T06:47:08;13.80;99.90
21184;DHT22;18176;49.502;11.754;2023-05-07T06:51:13;14.00;99.90
21184;DHT22;18176;49.502;11.754;2023-05-07T06:55:13;14.10;99.90
21184;DHT22;18176;49.502;11.754;2023-05-07T06:59:14;14.40;99.90
21184;DHT22;18176;49.502;11.754;2023-05-07T07:03:19;14.50;99.90
21184;DHT22;18176;49.502;11.754;2023-05-07T07:07:20;14.70;99.90
21184;DHT22;18176;49.502;11.754;2023-05-07T07:11:20;15.40;99.90
21184;DHT22;18176;49.502;11.754;2023-05-07T07:15:21;15.80;99.90
21184;DHT22;18176;49.502;11.754;2023-05-07T07:19:26;16.50;99.90
21184;DHT22;18176;49.502;11.754;2023-05-07T07:23:28;16.70;99.90
21184;DHT22;18176;49.502;11.754;2023-05-07T07:27:28;17.00;99.90
21184;DHT22;18176;49.502;11.754;2023-05-07T07:31:30;17.20;99.90
21184;DHT22;18176;49.502;11.754;2023-05-07T07:35:33;16.80;99.90
21184;DHT22;18176;49.502;11.754;2023-05-07T07:39:36;16.50;99.90
21184;DHT22;18176;49.502;11.754;2023-05-07T07:43:38;16.50;99.90
21184;DHT22;18176;49.502;11.754;2023-05-07T07:47:40;16.60;99.90
21184;DHT22;18176;49.502;11.754;2023-05-07T07:51:43;16.70;99.90
21184;DHT22;18176;49.502;11.754;2023-05-07T07:55:46;17.10;99.90
21184;DHT22;18176;49.502;11.754;2023-05-07T07:59:50;17.70;99.90
21184;DHT22;18176;49.502;11.754;2023-05-07T08:03:50;18.30;99.90
21184;DHT22;18176;49.502;11.754;2023-05-07T08:12:39;18.50;99.90
21184;DHT22;18176;49.502;11.754;2023-05-07T08:16:40;18.50;99.90
21184;DHT22;18176;49.502;11.754;2023-05-07T08:20:40;18.40;99.90
21184;DHT22;18176;49.502;11.754;2023-05-07T08:24:45;18.50;99.90
21184;DHT22;18176;49.502;11.754;2023-05-07T08:28:48;18.90;99.90
21184;DHT22;18176;49.502;11.754;2023-05-07T08:32:48;19.70;99.90
21184;DHT22;18176;49.502;11.754;2023-05-07T08:36:49;19.80;99.90
21184;DHT22;18176;49.502;11.754;2023-05-07T08:40:52;20.30;99.90
21184;DHT22;18176;49.502;11.754;2023-05-07T08:44:57;20.80;99.90
21184;DHT22;18176;49.502;11.754;2023-05-07T08:49:04;21.70;99.90
21184;DHT22;18176;49.502;11.754;2023-05-07T08:53:05;21.70;99.90
21184;DHT22;18176;49.502;11.754;2023-05-07T09:11:14;21.50;99.90
21184;DHT22;18176;49.502;11.754;2023-05-07T09:15:35;22.30;99.90
21184;DHT22;18176;49.502;11.754;2023-05-07T09:19:56;22.10;99.90
21184;DHT22;18176;49.502;11.754;2023-05-07T09:24:17;21.70;99.90
21184;DHT22;18176;49.502;11.754;2023-05-07T09:28:41;21.50;99.90
21184;DHT22;18176;49.502;11.754;2023-05-07T09:32:47;22.10;99.90
21184;DHT22;18176;49.502;11.754;2023-05-07T09:36:51;23.60;99.90
21184;DHT22;18176;49.502;11.754;2023-05-07T09:41:02;24.20;99.90
21184;DHT22;18176;49.502;11.754;2023-05-07T09:45:28;23.40;99.90
21184;DHT22;18176;49.502;11.754;2023-05-07T09:49:30;23.00;99.90
21184;DHT22;18176;49.502;11.754;2023-05-07T09:53:38;23.00;99.90
21184;DHT22;18176;49.502;11.754;2023-05-07T09:57:42;22.60;99.90
21184;DHT22;18176;49.502;11.754;2023-05-07T10:01:48;22.80;99.90
21184;DHT22;18176;49.502;11.754;2023-05-07T10:05:50;22.80;99.90
21184;DHT22;18176;49.502;11.754;2023-05-07T10:09:52;23.40;99.90
21184;DHT22;18176;49.502;11.754;2023-05-07T10:14:06;24.10;99.90
21184;DHT22;18176;49.502;11.754;2023-05-07T10:18:13;24.50;99.90
21184;DHT22;18176;49.502;11.754;2023-05-07T10:22:18;25.30;99.90
21184;DHT22;18176;49.502;11.754;2023-05-07T10:26:22;26.30;99.90
21184;DHT22;18176;49.502;11.754;2023-05-07T10:30:35;26.80;99.90
21184;DHT22;18176;49.502;11.754;2023-05-07T10:34:50;27.30;96.70
21184;DHT22;18176;49.502;11.754;2023-05-07T10:38:55;26.70;96.80
21184;DHT22;18176;49.502;11.754;2023-05-07T10:42:57;26.90;96.10
21184;DHT22;18176;49.502;11.754;2023-05-07T10:47:16;27.10;95.10
21184;DHT22;18176;49.502;11.754;2023-05-07T10:51:23;28.10;93.30
21184;DHT22;18176;49.502;11.754;2023-05-07T10:55:32;28.30;91.20
21184;DHT22;18176;49.502;11.754;2023-05-07T10:59:44;29.00;89.30
21184;DHT22;18176;49.502;11.754;2023-05-07T11:04:14;27.90;89.80
21184;DHT22;18176;49.502;11.754;2023-05-07T11:08:57;27.80;88.20
21184;DHT22;18176;49.502;11.754;2023-05-07T11:13:43;28.30;87.70
21184;DHT22;18176;49.502;11.754;2023-05-07T11:18:16;28.30;87.70
21184;DHT22;18176;49.502;11.754;2023-05-07T11:22:37;29.80;84.00
21184;DHT22;18176;49.502;11.754;2023-05-07T11:26:59;28.60;81.90
21184;DHT22;18176;49.502;11.754;2023-05-07T11:31:00;27.90;85.80
21184;DHT22;18176;49.502;11.754;2023-05-07T11:35:02;27.40;86.20
21184;DHT22;18176;49.502;11.754;2023-05-07T11:39:03;26.90;85.90
21184;DHT22;18176;49.502;11.754;2023-05-07T11:43:12;28.20;83.20
21184;DHT22;18176;49.502;11.754;2023-05-07T11:47:17;27.30;83.80
21184;DHT22;18176;49.502;11.754;2023-05-07T11:51:19;25.80;86.30
21184;DHT22;18176;49.502;11.754;2023-05-07T11:55:20;24.50;90.40
21184;DHT22;18176;49.502;11.754;2023-05-07T11:59:24;23.30;91.60
21184;DHT22;18176;49.502;11.754;2023-05-07T12:03:24;23.70;93.30
21184;DHT22;18176;49.502;11.754;2023-05-07T12:07:33;25.40;91.00
21184;DHT22;18176;49.502;11.754;2023-05-07T12:11:33;26.40;88.80
21184;DHT22;18176;49.502;11.754;2023-05-07T12:15:39;28.20;88.00
21184;DHT22;18176;49.502;11.754;2023-05-07T12:19:41;28.10;81.40
21184;DHT22;18176;49.502;11.754;2023-05-07T12:23:43;26.60;85.30
21184;DHT22;18176;49.502;11.754;2023-05-07T12:27:51;27.10;85.20
21184;DHT22;18176;49.502;11.754;2023-05-07T12:31:55;27.90;82.00
21184;DHT22;18176;49.502;11.754;2023-05-07T12:35:56;28.00;81.00
21184;DHT22;18176;49.502;11.754;2023-05-07T12:40:04;27.90;82.10
21184;DHT22;18176;49.502;11.754;2023-05-07T12:44:06;27.30;81.10
21184;DHT22;18176;49.502;11.754;2023-05-07T12:48:09;26.40;83.60
21184;DHT22;18176;49.502;11.754;2023-05-07T12:52:11;25.80;85.10
21184;DHT22;18176;49.502;11.754;2023-05-07T12:56:11;25.30;87.50
21184;DHT22;18176;49.502;11.754;2023-05-07T13:00:13;25.60;88.80
21184;DHT22;18176;49.502;11.754;2023-05-07T13:04:18;26.80;86.40
21184;DHT22;18176;49.502;11.754;2023-05-07T13:08:29;28.20;81.50
21184;DHT22;18176;49.502;11.754;2023-05-07T13:12:30;28.60;81.40
21184;DHT22;18176;49.502;11.754;2023-05-07T13:16:31;28.70;76.80
21184;DHT22;18176;49.502;11.754;2023-05-07T13:20:34;28.50;78.70
21184;DHT22;18176;49.502;11.754;2023-05-07T13:24:34;28.40;76.80
21184;DHT22;18176;49.502;11.754;2023-05-07T13:28:34;27.50;79.60
21184;DHT22;18176;49.502;11.754;2023-05-07T13:32:35;27.40;77.90
21184;DHT22;18176;49.502;11.754;2023-05-07T13:36:38;28.70;78.10
21184;DHT22;18176;49.502;11.754;2023-05-07T13:40:39;29.90;75.40
21184;DHT22;18176;49.502;11.754;2023-05-07T13:44:39;30.20;72.30
21184;DHT22;18176;49.502;11.754;2023-05-07T13:48:40;29.90;71.30
21184;DHT22;18176;49.502;11.754;2023-05-07T13:52:45;30.50;72.70
21184;DHT22;18176;49.502;11.754;2023-05-07T13:56:47;30.10;69.10
21184;DHT22;18176;49.502;11.754;2023-05-07T14:00:48;29.90;69.60
21184;DHT22;18176;49.502;11.754;2023-05-07T14:04:50;29.50;68.60
21184;DHT22;18176;49.502;11.754;2023-05-07T14:08:53;29.30;70.30
21184;DHT22;18176;49.502;11.754;2023-05-07T14:12:55;29.90;67.50
21184;DHT22;18176;49.502;11.754;2023-05-07T14:16:55;30.60;68.00
21184;DHT22;18176;49.502;11.754;2023-05-07T14:20:56;31.20;65.70
21184;DHT22;18176;49.502;11.754;2023-05-07T14:24:59;31.10;62.10
21184;DHT22;18176;49.502;11.754;2023-05-07T14:29:03;30.50;61.50
21184;DHT22;18176;49.502;11.754;2023-05-07T14:33:03;28.50;65.10
21184;DHT22;18176;49.502;11.754;2023-05-07T14:37:04;27.70;66.80
21184;DHT22;18176;49.502;11.754;2023-05-07T14:41:07;26.60;67.90
21184;DHT22;18176;49.502;11.754;2023-05-07T14:45:09;27.60;69.60
21184;DHT22;18176;49.502;11.754;2023-05-07T14:49:10;29.40;66.20
21184;DHT22;18176;49.502;11.754;2023-05-07T14:53:14;30.10;61.00
21184;DHT22;18176;49.502;11.754;2023-05-07T14:57:16;30.40;59.50
21184;DHT22;18176;49.502;11.754;2023-05-07T15:01:17;30.50;60.90
21184;DHT22;18176;49.502;11.754;2023-05-07T15:05:17;30.50;58.80
21184;DHT22;18176;49.502;11.754;2023-05-07T15:09:18;29.10;60.00
21184;DHT22;18176;49.502;11.754;2023-05-07T15:13:21;28.70;61.30
21184;DHT22;18176;49.502;11.754;2023-05-07T15:17:22;28.50;60.60
21184;DHT22;18176;49.502;11.754;2023-05-07T15:21:23;27.40;61.40
21184;DHT22;18176;49.502;11.754;2023-05-07T15:25:24;26.70;64.10
21184;DHT22;18176;49.502;11.754;2023-05-07T15:29:27;26.30;65.40
21184;DHT22;18176;49.502;11.754;2023-05-07T15:33:28;25.70;67.60
21184;DHT22;18176;49.502;11.754;2023-05-07T15:37:30;25.60;69.00
21184;DHT22;18176;49.502;11.754;2023-05-07T15:41:31;25.50;70.50
21184;DHT22;18176;49.502;11.754;2023-05-07T15:45:38;25.90;69.50
21184;DHT22;18176;49.502;11.754;2023-05-07T15:49:42;26.00;68.70
21184;DHT22;18176;49.502;11.754;2023-05-07T15:53:45;26.00;69.00
21184;DHT22;18176;49.502;11.754;2023-05-07T15:57:46;25.90;69.50
21184;DHT22;18176;49.502;11.754;2023-05-07T16:01:49;26.20;68.00
21184;DHT22;18176;49.502;11.754;2023-05-07T16:05:49;26.20;68.60
21184;DHT22;18176;49.502;11.754;2023-05-07T16:09:49;26.20;67.90
21184;DHT22;18176;49.502;11.754;2023-05-07T16:13:50;25.80;68.40
21184;DHT22;18176;49.502;11.754;2023-05-07T16:17:52;25.40;70.20
21184;DHT22;18176;49.502;11.754;2023-05-07T16:21:54;24.50;72.50
21184;DHT22;18176;49.502;11.754;2023-05-07T16:25:54;24.20;73.30
21184;DHT22;18176;49.502;11.754;2023-05-07T16:29:55;23.40;76.20
21184;DHT22;18176;49.502;11.754;2023-05-07T16:33:58;22.60;78.50
21184;DHT22;18176;49.502;11.754;2023-05-07T16:37:59;22.10;81.10
21184;DHT22;18176;49.502;11.754;2023-05-07T16:42:06;21.60;84.20
21184;DHT22;18176;49.502;11.754;2023-05-07T16:46:10;21.40;85.50
21184;DHT22;18176;49.502;11.754;2023-05-07T16:50:13;21.20;86.50
21184;DHT22;18176;49.502;11.754;2023-05-07T16:54:14;21.00;87.40
21184;DHT22;18176;49.502;11.754;2023-05-07T16:58:14;20.80;87.20
21184;DHT22;18176;49.502;11.754;2023-05-07T17:02:15;20.70;89.00
21184;DHT22;18176;49.502;11.754;2023-05-07T17:06:20;20.60;89.60
21184;DHT22;18176;49.502;11.754;2023-05-07T17:10:21;20.30;90.70
21184;DHT22;18176;49.502;11.754;2023-05-07T17:14:21;19.90;91.00
21184;DHT22;18176;49.502;11.754;2023-05-07T17:18:26;19.60;91.10
21184;DHT22;18176;49.502;11.754;2023-05-07T17:22:29;19.40;91.20
21184;DHT22;18176;49.502;11.754;2023-05-07T17:26:32;19.40;91.50
21184;DHT22;18176;49.502;11.754;2023-05-07T17:30:43;19.20;91.70
21184;DHT22;18176;49.502;11.754;2023-05-07T17:34:44;19.00;92.00
21184;DHT22;18176;49.502;11.754;2023-05-07T17:38:50;18.70;92.90
21184;DHT22;18176;49.502;11.754;2023-05-07T17:42:51;18.50;93.50
21184;DHT22;18176;49.502;11.754;2023-05-07T17:46:55;18.50;94.50
21184;DHT22;18176;49.502;11.754;2023-05-07T17:51:09;18.40;94.40
21184;DHT22;18176;49.502;11.754;2023-05-07T17:55:21;18.30;94.50
21184;DHT22;18176;49.502;11.754;2023-05-07T17:59:22;18.10;95.10
21184;DHT22;18176;49.502;11.754;2023-05-07T18:03:34;18.00;95.80
21184;DHT22;18176;49.502;11.754;2023-05-07T18:07:42;17.80;96.50
21184;DHT22;18176;49.502;11.754;2023-05-07T18:11:48;17.60;97.60
21184;DHT22;18176;49.502;11.754;2023-05-07T18:15:52;17.50;98.60
21184;DHT22;18176;49.502;11.754;2023-05-07T18:20:04;17.20;99.60
21184;DHT22;18176;49.502;11.754;2023-05-07T18:24:17;17.10;99.90
21184;DHT22;18176;49.502;11.754;2023-05-07T18:28:36;16.90;99.90
21184;DHT22;18176;49.502;11.754;2023-05-07T18:32:49;16.70;99.90
21184;DHT22;18176;49.502;11.754;2023-05-07T18:37:02;16.50;99.90
21184;DHT22;18176;49.502;11.754;2023-05-07T18:41:03;16.40;99.90
21184;DHT22;18176;49.502;11.754;2023-05-07T18:45:15;16.30;99.90
21184;DHT22;18176;49.502;11.754;2023-05-07T18:49:29;16.20;99.90
21184;DHT22;18176;49.502;11.754;2023-05-07T18:53:30;16.10;99.90
21184;DHT22;18176;49.502;11.754;2023-05-07T18:57:35;15.90;99.90
21184;DHT22;18176;49.502;11.754;2023-05-07T19:01:39;15.80;99.90
21184;DHT22;18176;49.502;11.754;2023-05-07T19:05:43;15.70;99.90
21184;DHT22;18176;49.502;11.754;2023-05-07T19:09:52;15.60;99.90
21184;DHT22;18176;49.502;11.754;2023-05-07T19:14:03;15.50;99.90
21184;DHT22;18176;49.502;11.754;2023-05-07T19:18:12;15.40;99.90
21184;DHT22;18176;49.502;11.754;2023-05-07T19:22:18;15.30;99.90
21184;DHT22;18176;49.502;11.754;2023-05-07T19:26:26;15.20;99.90
21184;DHT22;18176;49.502;11.754;2023-05-07T19:30:27;15.10;99.90
21184;DHT22;18176;49.502;11.754;2023-05-07T19:34:33;15.00;99.90
21184;DHT22;18176;49.502;11.754;2023-05-07T19:38:42;15.00;99.90
21184;DHT22;18176;49.502;11.754;2023-05-07T19:42:44;14.90;99.90
21184;DHT22;18176;49.502;11.754;2023-05-07T19:46:53;14.80;99.90
21184;DHT22;18176;49.502;11.754;2023-05-07T19:51:00;14.70;99.90
21184;DHT22;18176;49.502;11.754;2023-05-07T19:55:02;14.70;99.90
21184;DHT22;18176;49.502;11.754;2023-05-07T19:59:11;14.60;99.90
21184;DHT22;18176;49.502;11.754;2023-05-07T20:03:19;14.50;99.90
21184;DHT22;18176;49.502;11.754;2023-05-07T20:07:25;14.40;99.90
21184;DHT22;18176;49.502;11.754;2023-05-07T20:11:36;14.40;99.90
21184;DHT22;18176;49.502;11.754;2023-05-07T20:15:36;14.30;99.90
21184;DHT22;18176;49.502;11.754;2023-05-07T20:19:37;14.20;99.90
21184;DHT22;18176;49.502;11.754;2023-05-07T20:23:40;14.20;99.90
21184;DHT22;18176;49.502;11.754;2023-05-07T20:27:44;14.10;99.90
21184;DHT22;18176;49.502;11.754;2023-05-07T20:31:46;14.00;99.90
21184;DHT22;18176;49.502;11.754;2023-05-07T20:35:50;14.00;99.90
21184;DHT22;18176;49.502;11.754;2023-05-07T20:39:54;13.90;99.90
21184;DHT22;18176;49.502;11.754;2023-05-07T20:43:54;13.90;99.90
21184;DHT22;18176;49.502;11.754;2023-05-07T20:47:59;13.90;99.90
21184;DHT22;18176;49.502;11.754;2023-05-07T20:51:59;13.80;99.90
21184;DHT22;18176;49.502;11.754;2023-05-07T20:56:06;13.80;99.90
21184;DHT22;18176;49.502;11.754;2023-05-07T21:00:10;13.70;99.90
21184;DHT22;18176;49.502;11.754;2023-05-07T21:04:11;13.60;99.90
21184;DHT22;18176;49.502;11.754;2023-05-07T21:08:14;13.50;99.90
21184;DHT22;18176;49.502;11.754;2023-05-07T21:12:20;13.50;99.90
21184;DHT22;18176;49.502;11.754;2023-05-07T21:16:21;13.40;99.90
21184;DHT22;18176;49.502;11.754;2023-05-07T21:20:24;13.30;99.90
21184;DHT22;18176;49.502;11.754;2023-05-07T21:24:29;13.30;99.90
21184;DHT22;18176;49.502;11.754;2023-05-07T21:28:32;13.20;99.90
21184;DHT22;18176;49.502;11.754;2023-05-07T21:32:34;13.10;99.90
21184;DHT22;18176;49.502;11.754;2023-05-07T21:36:37;13.00;99.90
21184;DHT22;18176;49.502;11.754;2023-05-07T21:40:38;13.00;99.90
21184;DHT22;18176;49.502;11.754;2023-05-07T21:44:41;12.90;99.90
21184;DHT22;18176;49.502;11.754;2023-05-07T21:48:41;12.90;99.90
21184;DHT22;18176;49.502;11.754;2023-05-07T21:52:41;12.80;99.90
21184;DHT22;18176;49.502;11.754;2023-05-07T21:56:42;12.70;99.90
21184;DHT22;18176;49.502;11.754;2023-05-07T22:00:48;12.70;99.90
21184;DHT22;18176;49.502;11.754;2023-05-07T22:04:49;12.60;99.90
21184;DHT22;18176;49.502;11.754;2023-05-07T22:08:49;12.50;99.90
21184;DHT22;18176;49.502;11.754;2023-05-07T22:12:49;12.40;99.90
21184;DHT22;18176;49.502;11.754;2023-05-07T22:16:52;12.40;99.90
21184;DHT22;18176;49.502;11.754;2023-05-07T22:20:52;12.30;99.90
21184;DHT22;18176;49.502;11.754;2023-05-07T22:24:53;12.20;99.90
21184;DHT22;18176;49.502;11.754;2023-05-07T22:28:53;12.20;99.90
21184;DHT22;18176;49.502;11.754;2023-05-07T22:32:56;12.10;99.90
21184;DHT22;18176;49.502;11.754;2023-05-07T22:36:56;12.10;99.90
21184;DHT22;18176;49.502;11.754;2023-05-07T22:40:58;12.00;99.90
21184;DHT22;18176;49.502;11.754;2023-05-07T22:44:58;11.90;99.90
21184;DHT22;18176;49.502;11.754;2023-05-07T22:49:02;11.80;99.90
21184;DHT22;18176;49.502;11.754;2023-05-07T22:53:02;11.80;99.90
21184;DHT22;18176;49.502;11.754;2023-05-07T22:57:02;11.70;99.90
21184;DHT22;18176;49.502;11.754;2023-05-07T23:01:03;11.60;99.90
21184;DHT22;18176;49.502;11.754;2023-05-07T23:05:13;11.50;99.90
21184;DHT22;18176;49.502;11.754;2023-05-07T23:09:13;11.40;99.90
21184;DHT22;18176;49.502;11.754;2023-05-07T23:13:13;11.40;99.90
21184;DHT22;18176;49.502;11.754;2023-05-07T23:17:15;11.30;99.90
21184;DHT22;18176;49.502;11.754;2023-05-07T23:21:18;11.20;99.90
21184;DHT22;18176;49.502;11.754;2023-05-07T23:25:19;11.20;99.90
21184;DHT22;18176;49.502;11.754;2023-05-07T23:29:19;11.10;99.90
21184;DHT22;18176;49.502;11.754;2023-05-07T23:33:20;11.10;99.90
21184;DHT22;18176;49.502;11.754;2023-05-07T23:37:23;11.00;99.90
21184;DHT22;18176;49.502;11.754;2023-05-07T23:41:24;11.00;99.90
21184;DHT22;18176;49.502;11.754;2023-05-07T23:45:24;11.00;99.90
21184;DHT22;18176;49.502;11.754;2023-05-07T23:49:24;10.80;99.90
21184;DHT22;18176;49.502;11.754;2023-05-07T23:53:27;10.80;99.90
21184;DHT22;18176;49.502;11.754;2023-05-07T23:57:28;10.70;99.90
